Time;durP1;ratioP1;P1;durP2;ratioP2;P2;SDS_P1;SDS_P2;PMS_P1;PMS_P2;Temp;Humidity;BMP_temperature;BMP_pressure;BME280_temperature;BME280_humidity;BME280_pressure;Samples;Min_cycle;Max_cycle;Signal;HPM_P1;HPM_P2
2022/03/23 00:01:23;;;;;;;29.63;17.23;;;7.00;18.50;;;;;;2609645;47;20475;-76
2022/03/23 00:03:49;;;;;;;25.10;16.70;;;6.80;19.30;;;;;;2609586;47;20421;-76
2022/03/23 00:06:17;;;;;;;20.93;16.13;;;6.80;19.30;;;;;;2609094;47;20460;-77
2022/03/23 00:08:44;;;;;;;24.43;16.27;;;6.80;19.20;;;;;;2610652;54;20404;-77
2022/03/23 00:11:10;;;;;;;24.97;15.13;;;6.80;19.50;;;;;;2609922;54;20408;-78
2022/03/23 00:13:36;;;;;;;18.63;14.80;;;6.40;31.60;;;;;;2610443;47;20959;-76
2022/03/23 00:16:04;;;;;;;20.00;16.57;;;6.60;21.40;;;;;;2610703;54;20448;-76
2022/03/23 00:18:30;;;;;;;22.70;16.23;;;6.50;28.40;;;;;;2609932;54;20423;-76
2022/03/23 00:20:56;;;;;;;21.43;15.93;;;6.50;24.10;;;;;;2607466;54;20925;-76
2022/03/23 00:23:21;;;;;;;23.83;15.83;;;6.40;26.20;;;;;;2606230;54;20194;-77
2022/03/23 00:25:48;;;;;;;23.10;18.13;;;6.40;25.30;;;;;;2611978;46;20422;-75
2022/03/23 00:28:15;;;;;;;22.23;16.60;;;;;;;;;;2607540;54;20175;-77
2022/03/23 00:30:42;;;;;;;22.60;15.80;;;6.40;26.00;;;;;;2610760;47;20429;-77
2022/03/23 00:33:08;;;;;;;24.30;15.53;;;6.50;26.70;;;;;;2610205;54;20956;-77
2022/03/23 00:35:34;;;;;;;24.27;15.97;;;6.40;27.10;;;;;;2610953;54;20400;-76
2022/03/23 00:38:01;;;;;;;20.20;14.10;;;;;;;;;;2609849;54;20243;-75
2022/03/23 00:40:30;;;;;;;26.80;15.40;;;6.30;27.90;;;;;;2609789;47;20435;-76
2022/03/23 00:43:01;;;;;;;20.57;16.10;;;6.20;28.70;;;;;;2611742;54;20953;-76
2022/03/23 00:45:30;;;;;;;23.57;15.97;;;5.90;34.10;;;;;;2611596;39;20753;-77
2022/03/23 00:47:57;;;;;;;24.27;15.87;;;6.00;34.80;;;;;;2610067;47;20432;-77
2022/03/23 00:50:25;;;;;;;22.47;16.87;;;6.00;35.60;;;;;;2611772;47;20851;-76
2022/03/23 00:52:52;;;;;;;29.17;17.63;;;5.80;39.50;;;;;;2610428;54;20439;-77
2022/03/23 00:55:18;;;;;;;24.07;17.70;;;5.60;42.90;;;;;;2611101;54;20444;-76
2022/03/23 00:57:44;;;;;;;19.43;16.00;;;5.40;46.20;;;;;;2609016;47;20424;-76
2022/03/23 01:00:17;;;;;;;22.37;16.97;;;5.60;44.20;;;;;;2611726;46;20401;-75
2022/03/23 01:02:45;;;;;;;24.30;16.33;;;5.60;46.60;;;;;;2610176;54;20415;-76
2022/03/23 01:05:15;;;;;;;29.83;17.43;;;5.60;47.20;;;;;;2610726;39;20839;-79
2022/03/23 01:07:41;;;;;;;24.90;16.13;;;5.70;48.30;;;;;;2611449;39;20801;-74
2022/03/23 01:10:12;;;;;;;22.50;15.47;;;5.80;47.20;;;;;;2612020;54;20451;-77
2022/03/23 01:12:39;;;;;;;21.87;16.60;;;5.80;45.90;;;;;;2609870;54;20431;-77
2022/03/23 01:15:08;;;;;;;19.67;15.87;;;5.80;45.20;;;;;;2608727;54;20400;-75
2022/03/23 01:17:33;;;;;;;23.47;15.77;;;5.70;44.90;;;;;;2608008;39;20985;-75
2022/03/23 01:19:59;;;;;;;20.97;15.43;;;5.70;45.30;;;;;;2609911;54;20405;-75
2022/03/23 01:22:25;;;;;;;22.70;15.40;;;5.70;44.60;;;;;;2609091;47;20168;-75
2022/03/23 01:24:51;;;;;;;22.23;16.80;;;5.60;47.30;;;;;;2612673;47;20412;-75
2022/03/23 01:27:17;;;;;;;23.83;17.53;;;5.60;47.20;;;;;;2610015;54;20147;-76
2022/03/23 01:29:43;;;;;;;21.40;15.03;;;5.60;48.50;;;;;;2611183;47;20196;-76
2022/03/23 01:32:09;;;;;;;24.70;16.73;;;5.60;50.00;;;;;;2608752;54;20418;-76
2022/03/23 01:34:35;;;;;;;27.53;17.97;;;5.60;50.40;;;;;;2608531;54;20166;-75
2022/03/23 01:37:01;;;;;;;26.63;16.80;;;5.50;51.60;;;;;;2608029;39;20816;-75
2022/03/23 01:39:27;;;;;;;22.93;17.60;;;5.60;52.40;;;;;;2608479;54;20295;-74
2022/03/23 01:41:53;;;;;;;23.90;16.03;;;5.50;53.30;;;;;;2610389;54;20972;-75
2022/03/23 01:44:22;;;;;;;21.77;15.57;;;5.40;57.70;;;;;;2611359;46;20662;-75
2022/03/23 01:47:18;;;;;;;18.67;15.20;;;5.20;58.80;;;;;;2610990;54;20162;-76
2022/03/23 01:49:43;;;;;;;25.03;16.10;;;5.30;62.60;;;;;;2611023;47;20447;-77
2022/03/23 01:52:12;;;;;;;23.10;15.50;;;5.30;61.80;;;;;;2609527;54;20414;-76
2022/03/23 01:54:39;;;;;;;20.27;15.33;;;5.30;62.30;;;;;;2612918;54;20151;-75
2022/03/23 01:57:08;;;;;;;18.47;14.47;;;5.20;64.10;;;;;;2610275;47;20414;-75
2022/03/23 01:59:35;;;;;;;20.50;15.97;;;5.20;66.60;;;;;;2611518;39;20844;-75
2022/03/23 02:02:02;;;;;;;22.70;16.00;;;5.20;68.40;;;;;;2610467;39;20471;-77
2022/03/23 02:04:32;;;;;;;31.20;17.40;;;5.20;72.40;;;;;;2610069;47;20383;-76
2022/03/23 02:06:59;;;;;;;21.10;15.80;;;5.20;71.40;;;;;;2609209;54;20966;-78
2022/03/23 02:09:28;;;;;;;23.03;16.80;;;5.10;71.60;;;;;;2610262;47;20419;-76
2022/03/23 02:11:56;;;;;;;23.90;15.27;;;5.10;72.70;;;;;;2610697;39;20823;-77
2022/03/23 02:14:22;;;;;;;23.10;16.83;;;5.20;72.00;;;;;;2612926;39;20801;-77
2022/03/23 02:16:50;;;;;;;24.33;17.40;;;5.10;72.10;;;;;;2610974;47;20424;-76
2022/03/23 02:19:18;;;;;;;20.87;16.33;;;4.80;81.30;;;;;;2611067;47;20998;-76
2022/03/23 02:21:48;;;;;;;21.00;17.27;;;4.70;91.20;;;;;;2609439;54;20402;-78
2022/03/23 02:24:16;;;;;;;22.60;14.93;;;4.60;92.20;;;;;;2609941;47;20449;-78
2022/03/23 02:26:43;;;;;;;21.30;15.97;;;4.80;93.10;;;;;;2610423;50;20420;-78
2022/03/23 02:29:09;;;;;;;21.20;15.77;;;4.90;91.50;;;;;;2609371;47;20414;-76
2022/03/23 02:31:35;;;;;;;22.60;16.47;;;4.90;90.60;;;;;;2608425;54;20936;-79
2022/03/23 02:34:02;;;;;;;20.70;15.60;;;5.00;88.40;;;;;;2612788;39;20804;-77
2022/03/23 02:36:29;;;;;;;21.57;17.00;;;4.90;87.90;;;;;;2611496;47;20454;-77
2022/03/23 02:38:55;;;;;;;18.37;15.10;;;4.80;88.30;;;;;;2610993;54;20418;-78
2022/03/23 02:41:21;;;;;;;23.30;17.20;;;4.60;90.80;;;;;;2608435;51;20418;-76
2022/03/23 02:43:46;;;;;;;24.67;16.17;;;4.80;89.90;;;;;;2611240;54;20990;-78
2022/03/23 02:46:14;;;;;;;23.97;17.60;;;4.70;89.50;;;;;;2612119;54;20766;-78
2022/03/23 02:48:40;;;;;;;29.67;16.03;;;4.60;90.00;;;;;;2612274;54;20143;-77
2022/03/23 02:51:05;;;;;;;21.40;15.83;;;4.60;90.80;;;;;;2607984;54;20375;-76
2022/03/23 03:02:12;;;;;;;20.90;16.60;;;4.40;95.10;;;;;;2610318;54;20420;-77
2022/03/23 03:04:38;;;;;;;22.93;17.33;;;4.50;94.80;;;;;;2609535;47;20418;-77
2022/03/23 03:07:04;;;;;;;21.27;14.67;;;4.60;93.90;;;;;;2610127;54;20424;-78
2022/03/23 03:09:30;;;;;;;21.17;15.67;;;4.50;92.90;;;;;;2611425;54;20155;-78
2022/03/23 03:11:56;;;;;;;25.13;16.43;;;4.60;94.20;;;;;;2611090;54;20155;-77
2022/03/23 03:14:21;;;;;;;24.40;16.30;;;4.60;93.30;;;;;;2609509;54;20142;-78
2022/03/23 03:16:47;;;;;;;21.97;15.47;;;4.60;92.90;;;;;;2611897;39;20998;-78
2022/03/23 03:19:13;;;;;;;24.97;15.63;;;4.60;93.00;;;;;;2613037;51;20310;-77
2022/03/23 03:21:40;;;;;;;24.47;15.07;;;4.60;93.00;;;;;;2610424;54;20159;-76
2022/03/23 03:24:06;;;;;;;22.10;16.43;;;4.60;92.10;;;;;;2611373;54;20451;-78
2022/03/23 03:26:32;;;;;;;21.77;15.30;;;4.60;92.10;;;;;;2610619;54;20435;-77
2022/03/23 03:28:59;;;;;;;24.30;17.27;;;4.60;92.70;;;;;;2610757;54;20940;-77
2022/03/23 03:35:00;;;;;;;27.00;16.40;;;4.50;94.20;;;;;;2613586;54;20447;-78
2022/03/23 03:37:26;;;;;;;22.47;15.10;;;4.40;94.50;;;;;;2611596;39;20760;-77
2022/03/23 03:39:52;;;;;;;24.83;17.03;;;4.30;95.10;;;;;;2611607;47;20419;-77
2022/03/23 03:42:18;;;;;;;21.10;13.90;;;4.30;95.70;;;;;;2612289;54;20412;-77
2022/03/23 03:44:48;;;;;;;26.43;18.73;;;4.10;96.50;;;;;;2614088;51;20422;-78
2022/03/23 03:47:13;;;;;;;22.87;16.90;;;4.00;99.00;;;;;;2612673;54;20442;-77
2022/03/23 03:49:39;;;;;;;19.57;16.17;;;4.00;99.90;;;;;;2611821;54;20450;-77
2022/03/23 03:52:05;;;;;;;21.83;16.10;;;4.10;99.90;;;;;;2611036;39;20365;-76
2022/03/23 03:54:32;;;;;;;23.20;16.00;;;4.10;99.90;;;;;;2612157;46;20180;-76
2022/03/23 03:56:58;;;;;;;22.73;15.67;;;4.00;99.90;;;;;;2610716;54;20536;-77
2022/03/23 03:59:26;;;;;;;24.90;16.60;;;4.10;99.90;;;;;;2612849;39;20993;-77
2022/03/23 04:01:51;;;;;;;23.00;16.43;;;4.20;99.90;;;;;;2607820;54;20170;-76
2022/03/23 04:04:17;;;;;;;24.83;17.30;;;4.20;99.90;;;;;;2613358;39;20951;-77
2022/03/23 04:06:43;;;;;;;23.23;17.50;;;4.10;99.90;;;;;;2610937;47;20175;-77
2022/03/23 04:09:09;;;;;;;23.13;16.27;;;4.10;99.90;;;;;;2610297;54;20413;-78
2022/03/23 04:11:35;;;;;;;22.47;17.50;;;4.10;99.90;;;;;;2610253;51;20173;-78
2022/03/23 04:14:01;;;;;;;24.17;16.43;;;4.00;99.90;;;;;;2612311;47;20638;-77
2022/03/23 04:16:28;;;;;;;27.83;16.70;;;4.00;99.90;;;;;;2612246;47;20205;-77
2022/03/23 04:18:53;;;;;;;22.43;16.20;;;3.80;99.90;;;;;;2609775;54;20994;-77
2022/03/23 04:21:20;;;;;;;26.27;16.93;;;3.80;99.90;;;;;;2610549;47;20511;-77
2022/03/23 04:23:45;;;;;;;24.07;17.33;;;3.90;99.90;;;;;;2608636;54;20186;-77
2022/03/23 04:26:11;;;;;;;25.10;17.03;;;3.90;99.90;;;;;;2611240;54;20446;-76
2022/03/23 04:28:37;;;;;;;26.77;16.30;;;3.80;99.90;;;;;;2611705;39;20582;-77
2022/03/23 04:31:03;;;;;;;26.27;17.43;;;3.80;99.90;;;;;;2612457;47;20412;-77
2022/03/23 04:33:30;;;;;;;25.60;17.00;;;3.90;99.90;;;;;;2612720;54;20263;-78
2022/03/23 04:35:56;;;;;;;22.43;17.30;;;3.90;99.90;;;;;;2613079;54;20396;-79
2022/03/23 04:38:22;;;;;;;26.97;17.77;;;3.90;99.90;;;;;;2611984;54;20371;-75
2022/03/23 04:40:48;;;;;;;33.17;18.53;;;3.80;99.90;;;;;;2611088;47;20416;-76
2022/03/23 04:43:14;;;;;;;23.70;16.87;;;3.90;99.90;;;;;;2610945;47;20175;-77
2022/03/23 04:45:40;;;;;;;26.43;16.20;;;3.80;99.90;;;;;;2613426;39;20819;-77
2022/03/23 04:48:06;;;;;;;25.80;17.20;;;3.80;99.90;;;;;;2612468;54;20407;-77
2022/03/23 04:50:32;;;;;;;23.57;16.53;;;3.80;99.90;;;;;;2609785;54;20811;-78
2022/03/23 04:52:58;;;;;;;23.20;17.17;;;3.70;99.90;;;;;;2608085;47;20423;-77
2022/03/23 04:55:24;;;;;;;25.67;17.77;;;3.60;99.90;;;;;;2609083;54;20206;-76
2022/03/23 04:57:50;;;;;;;29.20;18.20;;;3.60;99.90;;;;;;2611844;54;20419;-77
2022/03/23 05:00:17;;;;;;;21.03;15.53;;;3.60;99.90;;;;;;2612932;54;20161;-76
2022/03/23 05:02:48;;;;;;;26.07;16.73;;;3.60;99.90;;;;;;2611441;54;20170;-77
2022/03/23 05:05:15;;;;;;;25.70;17.13;;;3.70;99.90;;;;;;2611502;54;20400;-76
2022/03/23 05:07:43;;;;;;;20.30;16.20;;;3.70;99.90;;;;;;2611011;47;21233;-77
2022/03/23 05:10:09;;;;;;;25.30;16.93;;;3.60;99.90;;;;;;2612122;47;20430;-77
2022/03/23 05:12:37;;;;;;;24.40;16.70;;;3.70;99.90;;;;;;2609269;51;20406;-77
2022/03/23 05:15:04;;;;;;;27.87;18.50;;;3.80;99.90;;;;;;2610867;54;20413;-78
2022/03/23 05:17:31;;;;;;;28.73;18.37;;;3.80;99.90;;;;;;2609142;47;20427;-78
2022/03/23 05:19:57;;;;;;;28.07;20.83;;;3.90;99.90;;;;;;2611412;54;20514;-78
2022/03/23 05:22:23;;;;;;;29.67;17.77;;;3.80;99.90;;;;;;2612024;54;20418;-78
2022/03/23 05:24:48;;;;;;;21.43;15.13;;;3.80;99.90;;;;;;2611784;54;20590;-78
2022/03/23 05:27:14;;;;;;;27.10;17.60;;;3.80;99.90;;;;;;2610047;47;20175;-79
2022/03/23 05:29:40;;;;;;;24.67;17.47;;;3.90;99.90;;;;;;2611743;54;20185;-79
2022/03/23 05:32:07;;;;;;;23.90;16.07;;;3.80;99.90;;;;;;2610123;54;20175;-77
2022/03/23 05:34:33;;;;;;;24.33;15.47;;;3.80;99.90;;;;;;2612048;54;20546;-78
2022/03/23 05:36:59;;;;;;;28.07;16.70;;;3.70;99.90;;;;;;2611159;54;20435;-77
2022/03/23 05:39:25;;;;;;;23.57;17.47;;;3.60;99.90;;;;;;2611873;54;20407;-79
2022/03/23 05:41:51;;;;;;;24.50;15.97;;;3.50;99.90;;;;;;2609974;54;20411;-77
2022/03/23 05:44:17;;;;;;;29.03;17.90;;;3.50;99.90;;;;;;2612268;54;20186;-78
2022/03/23 05:46:43;;;;;;;30.00;18.10;;;3.40;99.90;;;;;;2610980;54;20163;-77
2022/03/23 05:49:09;;;;;;;26.13;16.97;;;3.40;99.90;;;;;;2612556;54;20530;-78
2022/03/23 05:51:35;;;;;;;25.17;17.60;;;3.50;99.90;;;;;;2610537;39;20631;-77
2022/03/23 05:54:02;;;;;;;28.03;18.13;;;3.60;99.90;;;;;;2611043;47;20273;-77
2022/03/23 05:56:28;;;;;;;29.00;17.83;;;3.60;99.90;;;;;;2611396;47;20480;-77
2022/03/23 05:58:54;;;;;;;23.53;15.73;;;3.60;99.90;;;;;;2610477;39;20890;-77
2022/03/23 06:01:20;;;;;;;26.80;17.03;;;3.70;99.90;;;;;;2608593;54;20412;-78
2022/03/23 06:03:49;;;;;;;24.03;16.50;;;3.80;99.90;;;;;;2610720;54;20411;-77
2022/03/23 06:06:16;;;;;;;29.40;17.50;;;4.00;99.90;;;;;;2611124;47;20416;-78
2022/03/23 06:08:42;;;;;;;22.47;16.37;;;4.10;99.90;;;;;;2611450;54;20989;-78
2022/03/23 06:11:08;;;;;;;30.57;18.80;;;4.10;99.90;;;;;;2612334;54;20400;-79
2022/03/23 06:13:34;;;;;;;32.53;18.57;;;4.20;99.90;;;;;;2611941;51;20230;-78
2022/03/23 06:16:00;;;;;;;23.30;16.60;;;4.30;99.90;;;;;;2611607;47;20518;-78
2022/03/23 06:18:26;;;;;;;19.10;15.37;;;4.50;99.90;;;;;;2611579;54;21050;-77
2022/03/23 06:20:51;;;;;;;28.83;17.80;;;4.50;99.90;;;;;;2611872;54;20416;-77
2022/03/23 06:23:17;;;;;;;30.67;17.93;;;4.70;99.90;;;;;;2611576;54;21715;-76
2022/03/23 06:25:45;;;;;;;27.20;19.00;;;4.80;99.90;;;;;;2610996;47;20695;-76
2022/03/23 06:28:11;;;;;;;30.73;17.70;;;5.10;99.90;;;;;;2611386;54;20539;-78
2022/03/23 06:30:37;;;;;;;34.43;16.00;;;5.50;99.90;;;;;;2613783;39;20807;-85
2022/03/23 06:33:04;;;;;;;27.43;17.97;;;6.00;97.50;;;;;;2612713;54;20479;-77
2022/03/23 06:35:30;;;;;;;30.50;16.43;;;6.70;82.60;;;;;;2610569;54;20149;-79
2022/03/23 06:37:56;;;;;;;21.83;16.67;;;7.50;59.20;;;;;;2610333;50;20422;-77
2022/03/23 06:40:22;;;;;;;25.63;16.17;;;7.90;46.40;;;;;;2607781;54;20466;-77
2022/03/23 06:42:48;;;;;;;21.80;16.90;;;8.20;42.50;;;;;;2612952;47;20443;-77
2022/03/23 06:45:14;;;;;;;25.90;17.17;;;8.70;35.60;;;;;;2608669;51;20178;-76
2022/03/23 06:47:39;;;;;;;27.43;17.97;;;9.20;29.60;;;;;;2629492;36;20583;-76
2022/03/23 06:50:08;;;;;;;23.30;17.03;;;9.60;24.90;;;;;;2611078;54;20246;-77
2022/03/23 06:52:34;;;;;;;30.70;17.17;;;9.90;23.20;;;;;;2611960;39;20599;-76
2022/03/23 06:55:01;;;;;;;20.13;16.20;;;10.40;19.20;;;;;;2609551;54;20438;-77
2022/03/23 06:57:29;;;;;;;24.30;18.50;;;11.00;15.70;;;;;;2610200;54;21193;-77
2022/03/23 06:59:55;;;;;;;21.50;18.93;;;11.50;11.60;;;;;;2611816;54;20406;-77
2022/03/23 07:02:21;;;;;;;20.83;17.30;;;11.50;8.90;;;;;;2611353;47;20406;-77
2022/03/23 07:04:46;;;;;;;26.00;17.77;;;11.50;8.40;;;;;;2611855;54;20506;-76
2022/03/23 07:07:13;;;;;;;30.23;16.70;;;11.80;6.80;;;;;;2612142;54;20174;-76
2022/03/23 07:09:41;;;;;;;23.53;17.83;;;12.30;3.90;;;;;;2613625;54;20173;-76
2022/03/23 07:12:11;;;;;;;22.00;18.20;;;12.70;2.70;;;;;;2612062;54;20412;-75
2022/03/23 07:14:39;;;;;;;22.93;18.30;;;13.30;1.00;;;;;;2610109;54;21172;-76
2022/03/23 07:17:05;;;;;;;28.70;20.27;;;13.60;1.00;;;;;;2609833;54;20427;-76
2022/03/23 07:19:31;;;;;;;22.47;19.07;;;14.30;1.00;;;;;;2609109;54;20447;-77
2022/03/23 07:21:57;;;;;;;25.17;19.33;;;14.30;1.00;;;;;;2610516;47;20436;-76
2022/03/23 07:24:23;;;;;;;20.57;18.43;;;14.50;1.00;;;;;;2610260;54;20211;-76
2022/03/23 07:26:49;;;;;;;25.90;19.00;;;14.70;1.00;;;;;;2609235;54;20428;-76
2022/03/23 07:29:15;;;;;;;20.23;18.10;;;15.30;1.00;;;;;;2611252;54;20458;-77
2022/03/23 07:31:42;;;;;;;21.77;19.57;;;15.60;1.00;;;;;;2609242;54;20893;-76
2022/03/23 07:34:07;;;;;;;28.97;19.70;;;15.60;1.00;;;;;;2610336;47;20960;-76
2022/03/23 07:36:33;;;;;;;19.90;17.83;;;15.90;1.00;;;;;;2610367;47;21408;-75
2022/03/23 07:38:59;;;;;;;24.70;19.33;;;16.20;1.00;;;;;;2610405;54;20145;-76
2022/03/23 07:41:25;;;;;;;22.70;20.30;;;16.20;1.00;;;;;;2611020;54;20422;-76
2022/03/23 07:43:51;;;;;;;22.33;18.37;;;;;;;;;;2610269;54;20401;-76
2022/03/23 07:46:20;;;;;;;21.73;18.60;;;15.50;1.00;;;;;;2610222;54;20857;-75
2022/03/23 07:48:46;;;;;;;20.40;18.30;;;16.10;1.00;;;;;;2609499;54;20414;-75
2022/03/23 07:51:12;;;;;;;20.23;18.23;;;16.50;1.00;;;;;;2609541;54;20418;-76
2022/03/23 07:53:38;;;;;;;22.07;18.30;;;16.50;1.00;;;;;;2608637;47;20548;-76
2022/03/23 07:56:04;;;;;;;22.50;17.93;;;16.60;1.00;;;;;;2605872;54;20179;-79
2022/03/23 07:58:30;;;;;;;25.50;21.40;;;16.60;1.00;;;;;;2609864;54;20452;-77
2022/03/23 08:00:56;;;;;;;27.77;18.63;;;16.80;1.00;;;;;;2604217;54;20426;-77
2022/03/23 08:03:22;;;;;;;21.47;19.23;;;16.90;1.00;;;;;;2606538;54;20426;-76
2022/03/23 08:05:48;;;;;;;20.30;18.27;;;17.20;1.00;;;;;;2607427;47;20996;-77
2022/03/23 08:08:14;;;;;;;22.30;20.13;;;17.80;1.00;;;;;;2609269;47;20178;-78
2022/03/23 08:10:43;;;;;;;24.00;21.50;;;17.90;1.00;;;;;;2608034;54;21057;-78
2022/03/23 08:13:12;;;;;;;23.57;21.07;;;18.20;1.00;;;;;;2609299;39;20792;-78
2022/03/23 08:15:39;;;;;;;23.27;20.57;;;18.50;1.00;;;;;;2609304;54;20434;-78
2022/03/23 08:18:06;;;;;;;23.93;21.40;;;18.80;1.00;;;;;;2607654;54;21013;-78
2022/03/23 08:20:32;;;;;;;23.40;20.90;;;18.70;1.00;;;;;;2607583;54;20422;-78
2022/03/23 08:22:59;;;;;;;23.50;21.07;;;19.00;1.00;;;;;;2607625;54;20449;-78
2022/03/23 08:25:26;;;;;;;23.57;21.00;;;18.80;1.00;;;;;;2609463;54;20442;-77
2022/03/23 08:27:53;;;;;;;26.83;22.23;;;18.80;1.00;;;;;;2609128;54;20414;-77
2022/03/23 08:30:19;;;;;;;29.70;21.63;;;18.80;1.00;;;;;;2610260;39;20781;-76
2022/03/23 08:32:44;;;;;;;23.27;20.97;;;19.00;1.00;;;;;;2608609;54;20418;-77
2022/03/23 08:35:10;;;;;;;21.63;19.27;;;19.60;1.00;;;;;;2606726;54;20495;-79
2022/03/23 08:37:38;;;;;;;24.87;20.93;;;20.00;1.00;;;;;;2610082;54;20154;-77
2022/03/23 08:40:05;;;;;;;23.73;21.23;;;19.90;1.00;;;;;;2607225;47;20202;-79
2022/03/23 08:42:31;;;;;;;21.43;19.40;;;20.10;1.00;;;;;;2607779;39;20871;-77
2022/03/23 08:44:56;;;;;;;24.87;22.17;;;19.90;1.00;;;;;;2608455;54;20950;-77
2022/03/23 08:47:23;;;;;;;24.67;19.73;;;19.90;1.00;;;;;;2608938;47;20518;-76
2022/03/23 08:49:49;;;;;;;24.13;20.97;;;19.70;1.00;;;;;;2607398;54;20153;-78
2022/03/23 08:52:16;;;;;;;22.80;20.50;;;19.50;1.00;;;;;;2611025;54;20406;-79
2022/03/23 08:54:42;;;;;;;23.30;20.97;;;19.40;1.00;;;;;;2608055;54;21035;-77
2022/03/23 08:57:08;;;;;;;22.90;20.70;;;19.00;1.00;;;;;;2607496;54;21039;-78
2022/03/23 08:59:34;;;;;;;22.93;20.83;;;19.80;1.00;;;;;;2607422;54;20435;-77
2022/03/23 09:01:59;;;;;;;24.37;21.87;;;20.60;1.00;;;;;;2608299;54;20151;-77
2022/03/23 09:04:25;;;;;;;24.47;20.07;;;21.20;1.00;;;;;;2608140;39;20235;-79
2022/03/23 09:06:51;;;;;;;23.30;20.97;;;21.10;1.00;;;;;;2609151;54;20426;-76
2022/03/23 09:09:17;;;;;;;21.30;19.20;;;21.40;1.00;;;;;;2608200;54;20246;-76
2022/03/23 09:11:43;;;;;;;23.47;21.17;;;21.60;1.00;;;;;;2607903;54;21143;-75
2022/03/23 09:14:10;;;;;;;24.60;22.23;;;21.60;1.00;;;;;;2603230;39;20853;-75
2022/03/23 09:16:37;;;;;;;22.93;20.83;;;22.00;1.00;;;;;;2609311;46;20431;-76
2022/03/23 09:19:03;;;;;;;26.07;23.23;;;21.80;1.00;;;;;;2609592;54;20991;-76
2022/03/23 09:21:29;;;;;;;24.10;22.10;;;21.60;1.00;;;;;;2608908;54;20439;-75
2022/03/23 09:23:54;;;;;;;22.93;20.63;;;21.60;1.00;;;;;;2610594;54;20273;-76
2022/03/23 09:26:20;;;;;;;23.00;20.80;;;21.80;1.00;;;;;;2609978;54;20404;-76
2022/03/23 09:28:46;;;;;;;25.30;22.73;;;21.70;1.00;;;;;;2609331;54;20218;-76
2022/03/23 09:31:12;;;;;;;24.53;21.90;;;21.60;1.00;;;;;;2609302;54;20200;-77
2022/03/23 09:33:38;;;;;;;22.90;20.70;;;21.40;1.00;;;;;;2607262;46;20423;-77
2022/03/23 09:36:05;;;;;;;26.23;22.60;;;21.40;1.00;;;;;;2610414;54;20158;-76
2022/03/23 09:38:30;;;;;;;23.83;21.33;;;21.60;1.00;;;;;;2610577;47;20431;-76
2022/03/23 09:40:57;;;;;;;24.20;21.90;;;21.60;1.00;;;;;;2607611;54;21067;-77
2022/03/23 09:43:24;;;;;;;25.80;22.57;;;21.50;1.00;;;;;;2610557;54;21413;-76
2022/03/23 09:45:51;;;;;;;25.90;22.63;;;21.70;1.00;;;;;;2606786;54;20531;-76
2022/03/23 09:48:22;;;;;;;28.57;24.17;;;22.00;1.00;;;;;;2606391;47;20422;-76
2022/03/23 09:50:52;;;;;;;25.83;23.13;;;21.80;1.00;;;;;;2611013;54;20533;-77
2022/03/23 09:53:21;;;;;;;25.37;21.70;;;21.20;1.00;;;;;;2609677;54;21000;-77
2022/03/23 09:55:50;;;;;;;26.30;23.17;;;20.90;1.00;;;;;;2609450;54;20984;-79
2022/03/23 09:58:16;;;;;;;25.27;22.53;;;21.00;1.00;;;;;;2609617;54;20423;-76
2022/03/23 10:00:44;;;;;;;27.00;24.20;;;21.80;1.00;;;;;;2610011;47;20419;-76
2022/03/23 10:03:13;;;;;;;26.30;23.57;;;21.60;1.00;;;;;;2610799;54;20442;-76
2022/03/23 10:06:17;;;;;;;28.53;22.43;;;21.40;1.00;;;;;;2610146;47;20466;-75
2022/03/23 10:09:06;;;;;;;31.10;24.13;;;21.80;1.00;;;;;;2612146;47;20436;-75
2022/03/23 10:12:16;;;;;;;25.80;23.20;;;21.60;1.00;;;;;;2609645;54;20502;-77
2022/03/23 10:15:20;;;;;;;26.30;22.00;;;21.70;1.00;;;;;;2610639;47;20507;-74
2022/03/23 10:18:18;;;;;;;25.10;22.73;;;22.40;1.00;;;;;;2609680;39;20878;-76
2022/03/23 10:20:44;;;;;;;27.67;24.87;;;22.20;1.00;;;;;;2609917;54;20403;-76
2022/03/23 10:23:10;;;;;;;25.47;22.90;;;21.90;1.00;;;;;;2608598;54;20626;-76
2022/03/23 10:25:39;;;;;;;26.60;23.80;;;21.90;1.00;;;;;;2607860;46;21129;-76
2022/03/23 10:28:13;;;;;;;29.33;23.40;;;23.00;1.00;;;;;;2609428;47;20419;-76
2022/03/23 10:30:39;;;;;;;27.33;24.10;;;23.30;1.00;;;;;;2610662;54;20423;-77
2022/03/23 10:33:23;;;;;;;27.97;24.90;;;23.00;1.00;;;;;;2610227;54;20419;-76
2022/03/23 10:35:50;;;;;;;33.20;25.30;;;23.30;1.00;;;;;;2609845;54;20415;-77
2022/03/23 10:38:21;;;;;;;27.33;24.20;;;23.20;1.00;;;;;;2609833;54;20428;-76
2022/03/23 10:40:50;;;;;;;30.07;27.30;;;23.50;1.00;;;;;;2606163;54;21089;-76
2022/03/23 10:43:22;;;;;;;28.73;26.03;;;23.80;1.00;;;;;;2610188;51;20502;-75
2022/03/23 10:45:48;;;;;;;34.50;27.30;;;23.70;1.00;;;;;;2605036;54;20403;-77
2022/03/23 10:48:17;;;;;;;32.30;27.73;;;23.90;1.00;;;;;;2610847;47;20431;-76
2022/03/23 10:50:55;;;;;;;28.00;25.00;;;23.70;1.00;;;;;;2609892;54;20166;-76
2022/03/23 10:53:30;;;;;;;28.63;25.83;;;24.20;1.00;;;;;;2610624;39;20963;-77
2022/03/23 10:55:57;;;;;;;29.10;26.43;;;24.70;1.00;;;;;;2608858;46;20436;-76
2022/03/23 11:02:05;;;;;;;28.93;26.13;;;24.90;1.00;;;;;;2604261;54;20438;-76
2022/03/23 11:04:44;;;;;;;28.80;26.07;;;24.30;1.00;;;;;;2607112;47;20455;-76
2022/03/23 11:07:29;;;;;;;28.03;25.33;;;23.90;1.00;;;;;;2610088;54;20978;-77
2022/03/23 11:15:50;;;;;;;28.13;25.63;;;23.50;1.00;;;;;;2610140;47;20408;-76
2022/03/23 11:18:18;;;;;;;30.07;27.07;;;23.70;1.00;;;;;;2611913;39;20801;-77
2022/03/23 11:20:46;;;;;;;27.47;24.90;;;24.10;1.00;;;;;;2606114;54;20392;-75
2022/03/23 11:23:23;;;;;;;27.10;24.27;;;24.30;1.00;;;;;;2610546;54;20494;-75
2022/03/23 11:25:54;;;;;;;28.47;25.47;;;24.50;1.00;;;;;;2609193;54;20498;-78
2022/03/23 11:28:21;;;;;;;27.00;22.53;;;24.30;1.00;;;;;;2576044;54;20414;-75
2022/03/23 11:30:49;;;;;;;29.00;26.30;;;23.70;1.00;;;;;;2609985;54;20415;-77
2022/03/23 11:33:17;;;;;;;27.90;25.10;;;22.90;1.00;;;;;;2609154;54;21305;-76
2022/03/23 11:35:49;;;;;;;27.73;24.67;;;23.00;1.00;;;;;;2609592;39;20765;-75
2022/03/23 11:38:18;;;;;;;24.80;22.50;;;23.00;1.00;;;;;;2609205;54;20406;-75
2022/03/23 11:40:45;;;;;;;26.60;24.20;;;23.10;1.00;;;;;;2610475;47;20405;-75
2022/03/23 11:43:17;;;;;;;25.67;22.93;;;23.80;1.00;;;;;;2608580;39;20467;-75
2022/03/23 11:45:45;;;;;;;27.17;24.60;;;23.90;1.00;;;;;;2608782;54;20467;-75
2022/03/23 11:48:11;;;;;;;25.00;22.90;;;24.20;1.00;;;;;;2609457;47;20435;-73
2022/03/23 11:51:01;;;;;;;26.00;23.60;;;24.20;1.00;;;;;;2607794;39;20844;-76
2022/03/23 11:53:55;;;;;;;26.63;24.00;;;24.30;1.00;;;;;;2608996;54;20264;-75
2022/03/23 11:56:38;;;;;;;26.93;24.33;;;24.20;1.00;;;;;;2607859;39;20784;-75
2022/03/23 11:59:30;;;;;;;27.50;25.20;;;23.80;1.00;;;;;;2603625;54;20415;-76
2022/03/23 12:01:57;;;;;;;27.40;24.63;;;23.60;1.00;;;;;;2608934;54;20483;-75
2022/03/23 12:04:25;;;;;;;27.40;24.90;;;23.50;1.00;;;;;;2608909;54;20407;-76
2022/03/23 12:07:00;;;;;;;30.30;27.20;;;23.90;1.00;;;;;;2607097;47;20414;-75
2022/03/23 12:09:33;;;;;;;28.07;25.37;;;23.50;1.00;;;;;;2608094;54;20417;-75
2022/03/23 12:11:59;;;;;;;27.50;24.70;;;23.50;1.00;;;;;;2610406;39;20482;-75
2022/03/23 12:14:36;;;;;;;30.40;26.03;;;23.40;1.00;;;;;;2609638;54;20487;-76
2022/03/23 12:17:15;;;;;;;28.97;26.03;;;23.50;1.00;;;;;;2607302;54;20418;-75
2022/03/23 12:20:03;;;;;;;27.50;24.90;;;24.60;1.00;;;;;;2608826;47;21165;-75
2022/03/23 12:22:32;;;;;;;27.30;24.87;;;24.70;1.00;;;;;;2607252;54;20539;-75
2022/03/23 12:25:09;;;;;;;27.50;25.20;;;24.80;1.00;;;;;;2608300;54;20475;-75
2022/03/23 12:27:54;;;;;;;29.87;26.70;;;24.60;1.00;;;;;;2609292;54;20416;-75
2022/03/23 12:30:26;;;;;;;29.03;26.13;;;25.10;1.00;;;;;;2610016;54;20562;-75
2022/03/23 12:33:00;;;;;;;30.73;28.03;;;25.20;1.00;;;;;;2609671;47;20420;-76
2022/03/23 12:35:34;;;;;;;29.70;25.70;;;23.90;1.00;;;;;;2610187;47;20951;-78
2022/03/23 12:38:03;;;;;;;31.73;24.60;;;24.30;1.00;;;;;;2609708;54;20421;-76
2022/03/23 12:40:40;;;;;;;30.13;26.57;;;23.70;1.00;;;;;;2610598;54;20975;-78
2022/03/23 12:43:06;;;;;;;28.43;25.73;;;23.70;1.00;;;;;;2610237;54;20426;-75
2022/03/23 12:45:36;;;;;;;27.93;24.67;;;23.80;1.00;;;;;;2611169;54;20510;-75
2022/03/23 12:59:19;;;;;;;29.73;26.73;;;23.80;1.00;;;;;;2610047;54;20996;-76
2022/03/23 13:01:46;;;;;;;26.50;23.87;;;23.50;1.00;;;;;;2609859;54;21832;-76
2022/03/23 13:04:40;;;;;;;29.30;26.50;;;23.50;1.00;;;;;;2608760;54;20474;-76
2022/03/23 13:07:27;;;;;;;30.57;27.47;;;23.80;1.00;;;;;;2609416;54;20407;-76
2022/03/23 13:10:07;;;;;;;29.83;27.03;;;24.10;1.00;;;;;;2609265;54;20438;-76
2022/03/23 13:12:33;;;;;;;30.47;27.37;;;24.00;1.00;;;;;;2609593;54;20407;-76
2022/03/23 13:14:59;;;;;;;37.37;27.43;;;24.20;1.00;;;;;;2608649;39;21093;-76
2022/03/23 13:17:26;;;;;;;28.17;25.43;;;24.00;1.00;;;;;;2608381;54;20409;-75